createdAt,value
2019-02-21T00:01:51.841Z,13.70
2019-02-21T00:04:41.254Z,15.13
2019-02-21T00:07:30.912Z,17.27
2019-02-21T00:10:20.466Z,15.17
2019-02-21T00:13:10.005Z,18.27
2019-02-21T00:15:59.792Z,18.67
2019-02-21T00:18:48.978Z,17.10
2019-02-21T00:21:38.263Z,20.17
2019-02-21T00:24:28.126Z,17.93
2019-02-21T00:27:17.368Z,23.67
2019-02-21T00:30:06.890Z,27.70
2019-02-21T00:32:56.476Z,22.00
2019-02-21T00:35:46.147Z,25.60
2019-02-21T00:38:36.776Z,22.30
2019-02-21T00:41:26.418Z,20.83
2019-02-21T00:44:15.579Z,20.20
2019-02-21T00:47:05.016Z,27.13
2019-02-21T00:49:54.294Z,22.57
2019-02-21T00:52:44.339Z,20.23
2019-02-21T00:55:33.886Z,20.17
2019-02-21T00:58:23.317Z,19.13
2019-02-21T01:01:13.262Z,20.57
2019-02-21T01:04:02.719Z,21.80
2019-02-21T01:06:52.407Z,22.90
2019-02-21T01:09:41.995Z,20.43
2019-02-21T01:12:31.810Z,20.40
2019-02-21T01:15:22.082Z,16.57
2019-02-21T01:18:11.729Z,18.23
2019-02-21T01:21:01.176Z,20.40
2019-02-21T01:23:50.344Z,19.93
2019-02-21T01:26:39.554Z,20.87
2019-02-21T01:29:29.408Z,21.57
2019-02-21T01:32:18.955Z,22.93
2019-02-21T01:35:08.925Z,20.87
2019-02-21T01:37:58.332Z,20.60
2019-02-21T01:40:48.291Z,21.00
2019-02-21T01:43:37.441Z,19.30
2019-02-21T01:46:26.308Z,18.27
2019-02-21T01:49:15.569Z,17.50
2019-02-21T01:52:04.868Z,19.70
2019-02-21T01:54:54.514Z,14.90
2019-02-21T01:57:43.916Z,18.37
2019-02-21T02:00:33.446Z,16.47
2019-02-21T02:03:22.594Z,20.17
2019-02-21T02:06:12.172Z,15.50
2019-02-21T02:09:02.644Z,17.23
2019-02-21T02:11:52.025Z,16.57
2019-02-21T02:14:41.986Z,18.30
2019-02-21T02:17:31.489Z,21.57
2019-02-21T02:20:20.905Z,16.73
2019-02-21T02:23:10.481Z,19.90
2019-02-21T02:26:00.423Z,22.03
2019-02-21T02:28:49.943Z,23.03
2019-02-21T02:31:39.669Z,26.77
2019-02-21T02:34:28.786Z,25.60
2019-02-21T02:37:17.903Z,22.70
2019-02-21T02:40:07.942Z,21.33
2019-02-21T02:42:57.655Z,23.37
2019-02-21T02:45:46.897Z,26.67
2019-02-21T02:48:37.197Z,24.43
2019-02-21T02:51:26.497Z,43.73
2019-02-21T02:54:15.900Z,45.07
2019-02-21T02:57:05.503Z,28.47
2019-02-21T02:59:54.909Z,36.10
2019-02-21T03:02:44.348Z,24.57
2019-02-21T03:05:34.084Z,27.53
2019-02-21T03:08:23.964Z,29.73
2019-02-21T03:11:13.742Z,23.20
2019-02-21T03:14:03.030Z,23.23
2019-02-21T03:16:52.230Z,21.13
2019-02-21T03:19:41.780Z,25.10
2019-02-21T03:22:31.252Z,22.93
2019-02-21T03:25:20.738Z,25.10
2019-02-21T03:28:10.432Z,20.90
2019-02-21T03:30:59.846Z,29.60
2019-02-21T03:33:49.014Z,26.07
2019-02-21T03:36:39.371Z,25.33
2019-02-21T03:39:28.534Z,27.87
2019-02-21T03:42:18.175Z,28.80
2019-02-21T03:45:08.945Z,25.73
2019-02-21T03:47:58.983Z,24.70
2019-02-21T03:50:48.682Z,24.97
2019-02-21T03:53:38.426Z,32.10
2019-02-21T03:56:27.617Z,25.17
2019-02-21T03:59:17.408Z,28.00
2019-02-21T04:02:06.849Z,28.60
2019-02-21T04:04:56.582Z,24.17
2019-02-21T04:07:45.919Z,35.23
2019-02-21T04:10:35.910Z,25.40
2019-02-21T04:13:25.726Z,26.70
2019-02-21T04:16:15.534Z,26.27
2019-02-21T04:19:05.057Z,28.03
2019-02-21T04:21:55.112Z,30.53
2019-02-21T04:24:44.952Z,27.53
2019-02-21T04:27:34.549Z,28.87
2019-02-21T04:30:24.116Z,29.07
2019-02-21T04:33:13.327Z,29.00
2019-02-21T04:36:03.083Z,24.93
2019-02-21T04:38:52.497Z,28.03
2019-02-21T04:41:41.699Z,27.63
2019-02-21T04:44:31.727Z,27.73
2019-02-21T04:47:21.371Z,36.33
2019-02-21T04:50:11.200Z,52.93
2019-02-21T04:53:00.538Z,35.10
2019-02-21T04:55:50.272Z,29.53
2019-02-21T04:58:39.761Z,29.20
2019-02-21T05:01:30.575Z,32.00
2019-02-21T05:04:19.863Z,32.40
2019-02-21T05:07:09.488Z,32.37
2019-02-21T05:09:59.243Z,29.00
2019-02-21T05:12:48.458Z,29.00
2019-02-21T05:15:37.923Z,33.20
2019-02-21T05:18:27.505Z,36.43
2019-02-21T05:21:17.144Z,27.90
2019-02-21T05:24:08.867Z,25.03
2019-02-21T05:27:07.284Z,30.37
2019-02-21T05:29:56.390Z,28.63
2019-02-21T05:33:01.170Z,25.33
2019-02-21T05:36:03.890Z,27.97
2019-02-21T05:39:24.929Z,24.20
2019-02-21T05:42:21.214Z,26.90
2019-02-21T05:45:35.808Z,26.53
2019-02-21T05:48:33.152Z,30.17
2019-02-21T05:51:31.568Z,31.30
2019-02-21T05:54:39.951Z,29.53
2019-02-21T05:57:51.755Z,27.90
2019-02-21T06:01:00.066Z,25.03
2019-02-21T06:04:19.313Z,29.10
2019-02-21T06:07:27.265Z,39.03
2019-02-21T06:10:34.967Z,37.07
2019-02-21T06:13:46.687Z,26.10
2019-02-21T06:16:53.365Z,35.00
2019-02-21T06:20:02.199Z,28.53
2019-02-21T06:23:02.542Z,30.17
2019-02-21T06:26:10.681Z,27.97
2019-02-21T06:29:10.480Z,33.10
2019-02-21T06:32:00.026Z,35.13
2019-02-21T06:34:49.231Z,30.93
2019-02-21T06:37:38.415Z,35.20
2019-02-21T06:40:27.811Z,38.70
2019-02-21T06:43:17.447Z,36.10
2019-02-21T06:46:06.985Z,48.50
2019-02-21T06:48:56.653Z,43.13
2019-02-21T06:51:46.345Z,41.50
2019-02-21T06:54:35.522Z,33.00
2019-02-21T06:57:25.039Z,35.07
2019-02-21T07:00:14.556Z,38.83
2019-02-21T07:03:15.238Z,35.77
2019-02-21T07:05:55.509Z,34.63
2019-02-21T07:08:45.208Z,35.43
2019-02-21T07:11:34.573Z,36.57
2019-02-21T07:14:24.102Z,33.63
2019-02-21T07:17:13.532Z,41.83
2019-02-21T07:20:03.481Z,40.57
2019-02-21T07:22:52.701Z,39.93
2019-02-21T07:26:03.719Z,39.30
2019-02-21T07:28:53.377Z,38.80
2019-02-21T07:31:42.650Z,37.00
2019-02-21T07:34:32.256Z,45.73
2019-02-21T07:37:21.795Z,47.57
2019-02-21T07:40:19.675Z,46.33
2019-02-21T07:43:03.722Z,43.70
2019-02-21T07:45:53.196Z,48.60
2019-02-21T07:48:43.240Z,50.17
2019-02-21T07:51:32.703Z,51.00
2019-02-21T07:54:22.347Z,49.50
2019-02-21T07:57:11.615Z,54.87
2019-02-21T08:00:01.411Z,58.73
2019-02-21T08:02:50.589Z,60.03
2019-02-21T08:05:40.122Z,52.27
2019-02-21T08:08:32.276Z,47.80
2019-02-21T08:11:20.544Z,57.13
2019-02-21T08:14:11.220Z,58.60
2019-02-21T08:17:00.745Z,56.17
2019-02-21T08:19:50.188Z,49.93
2019-02-21T08:22:39.778Z,53.33
2019-02-21T08:25:29.230Z,51.37
2019-02-21T08:28:18.417Z,49.07
2019-02-21T08:31:07.911Z,51.90
2019-02-21T08:34:05.362Z,50.33
2019-02-21T08:36:54.642Z,47.90
2019-02-21T08:39:44.251Z,53.00
2019-02-21T08:42:33.721Z,52.40
2019-02-21T08:45:23.108Z,54.90
2019-02-21T08:48:13.506Z,55.23
2019-02-21T08:51:06.082Z,53.73
2019-02-21T08:53:54.758Z,60.80
2019-02-21T08:56:44.296Z,51.97
2019-02-21T08:59:33.750Z,52.20
2019-02-21T09:02:23.734Z,45.43
2019-02-21T09:05:13.162Z,57.60
2019-02-21T09:08:03.163Z,50.97
2019-02-21T09:10:52.929Z,58.90
2019-02-21T09:13:42.517Z,46.70
2019-02-21T09:16:32.098Z,44.23
2019-02-21T09:19:21.460Z,46.10
2019-02-21T09:22:15.253Z,43.07
2019-02-21T09:25:10.004Z,41.20
2019-02-21T09:27:59.972Z,48.47
2019-02-21T09:30:49.770Z,40.43
2019-02-21T09:33:38.996Z,43.63
2019-02-21T09:36:28.376Z,45.57
2019-02-21T09:39:17.893Z,42.97
2019-02-21T09:42:08.048Z,39.23
2019-02-21T09:44:57.320Z,35.20
2019-02-21T09:47:47.239Z,39.47
2019-02-21T09:50:36.717Z,36.97
2019-02-21T09:53:26.549Z,39.37
2019-02-21T09:56:16.000Z,43.10
2019-02-21T09:59:06.799Z,42.07
2019-02-21T10:01:57.603Z,40.10
2019-02-21T10:04:47.359Z,36.23
2019-02-21T10:07:37.627Z,34.63
2019-02-21T10:10:26.805Z,33.73
2019-02-21T10:13:16.517Z,41.70
2019-02-21T10:16:06.115Z,41.43
2019-02-21T10:18:55.857Z,32.20
2019-02-21T10:21:45.320Z,35.17
2019-02-21T10:24:35.026Z,38.70
2019-02-21T10:27:24.304Z,36.47
2019-02-21T10:30:14.721Z,37.93
2019-02-21T10:33:04.125Z,48.27
2019-02-21T10:35:53.737Z,32.93
2019-02-21T10:38:42.998Z,42.33
2019-02-21T10:41:32.921Z,39.20
2019-02-21T10:44:22.239Z,32.50
2019-02-21T10:47:12.283Z,34.27
2019-02-21T10:50:01.748Z,31.63
2019-02-21T10:52:51.646Z,32.40
2019-02-21T10:55:40.845Z,28.70
2019-02-21T10:58:30.666Z,30.03
2019-02-21T11:01:20.811Z,30.23
2019-02-21T11:04:12.840Z,28.80
2019-02-21T11:07:02.305Z,25.53
2019-02-21T11:09:52.180Z,24.77
2019-02-21T11:12:41.579Z,27.10
2019-02-21T11:15:31.613Z,25.83
2019-02-21T11:18:20.771Z,24.57
2019-02-21T11:21:13.005Z,25.73
2019-02-21T11:24:02.293Z,25.80
2019-02-21T11:26:51.934Z,23.97
2019-02-21T11:29:41.272Z,27.90
2019-02-21T11:32:30.648Z,24.53
2019-02-21T11:35:20.104Z,22.17
2019-02-21T11:38:09.722Z,26.83
2019-02-21T11:40:59.220Z,27.37
2019-02-21T11:43:49.100Z,22.10
2019-02-21T11:46:38.606Z,34.00
2019-02-21T11:49:27.945Z,20.20
2019-02-21T11:52:17.845Z,22.30
2019-02-21T11:55:08.154Z,24.40
2019-02-21T11:57:57.750Z,37.07
2019-02-21T12:00:46.981Z,28.90
2019-02-21T12:03:36.792Z,19.80
2019-02-21T12:06:25.973Z,21.13
2019-02-21T12:09:15.692Z,20.73
2019-02-21T12:12:05.274Z,23.33
2019-02-21T12:14:54.904Z,22.50
2019-02-21T12:17:44.337Z,24.83
2019-02-21T12:20:34.272Z,22.37
2019-02-21T12:23:23.408Z,24.17
2019-02-21T12:26:12.845Z,26.33
2019-02-21T12:29:02.203Z,27.53
2019-02-21T12:31:51.909Z,24.33
2019-02-21T12:34:41.061Z,25.17
2019-02-21T12:37:30.406Z,32.93
2019-02-21T12:40:19.959Z,33.67
2019-02-21T12:43:10.021Z,22.73
2019-02-21T12:46:02.247Z,24.73
2019-02-21T12:48:51.695Z,24.60
2019-02-21T12:51:41.863Z,22.10
2019-02-21T12:54:31.246Z,24.33
2019-02-21T12:57:20.438Z,26.90
2019-02-21T13:00:15.305Z,22.47
2019-02-21T13:03:05.025Z,26.37
2019-02-21T13:05:54.942Z,23.60
2019-02-21T13:08:44.594Z,26.07
2019-02-21T13:11:35.583Z,23.37
2019-02-21T13:14:25.383Z,24.47
2019-02-21T13:17:14.971Z,26.93
2019-02-21T13:20:05.776Z,27.47
2019-02-21T13:22:55.199Z,32.80
2019-02-21T13:25:44.549Z,30.67
2019-02-21T13:28:33.702Z,29.20
2019-02-21T13:31:23.200Z,27.00
2019-02-21T13:34:12.469Z,30.90
2019-02-21T13:37:02.263Z,29.23
2019-02-21T13:39:51.881Z,30.23
2019-02-21T13:42:41.248Z,28.20
2019-02-21T13:45:30.666Z,34.70
2019-02-21T13:48:20.293Z,36.43
2019-02-21T13:51:09.683Z,27.10
2019-02-21T13:53:59.433Z,37.53
2019-02-21T13:56:49.138Z,27.90
2019-02-21T13:59:39.011Z,30.37
2019-02-21T14:02:28.555Z,29.57
2019-02-21T14:05:18.130Z,24.90
2019-02-21T14:08:07.608Z,29.47
2019-02-21T14:10:57.535Z,38.80
2019-02-21T14:13:46.795Z,28.60
2019-02-21T14:16:46.120Z,28.87
2019-02-21T14:19:27.715Z,30.07
2019-02-21T14:22:17.288Z,35.70
2019-02-21T14:25:07.759Z,32.07
2019-02-21T14:27:57.167Z,26.57
2019-02-21T14:30:47.021Z,29.63
2019-02-21T14:33:36.535Z,30.87
2019-02-21T14:36:25.762Z,31.03
2019-02-21T14:39:15.781Z,34.13
2019-02-21T14:42:05.509Z,29.13
2019-02-21T14:44:54.730Z,26.33
2019-02-21T14:47:44.408Z,31.30
2019-02-21T14:50:35.962Z,26.73
2019-02-21T14:53:24.696Z,28.60
2019-02-21T14:56:13.888Z,34.03
2019-02-21T14:59:03.858Z,27.37
2019-02-21T15:01:53.918Z,25.50
2019-02-21T15:04:43.967Z,22.20
2019-02-21T15:07:33.348Z,23.80
2019-02-21T15:10:22.848Z,25.40
2019-02-21T15:13:12.202Z,23.63
2019-02-21T15:16:01.329Z,27.93
2019-02-21T15:18:50.647Z,21.33
2019-02-21T15:21:40.776Z,22.47
2019-02-21T15:24:30.024Z,26.23
2019-02-21T15:27:19.546Z,22.63
2019-02-21T15:30:11.283Z,21.97
2019-02-21T15:33:01.014Z,28.90
2019-02-21T15:35:50.124Z,21.50
2019-02-21T15:38:40.004Z,27.17
2019-02-21T15:41:29.480Z,25.53
2019-02-21T15:44:19.328Z,18.47
2019-02-21T15:47:08.896Z,26.10
2019-02-21T15:49:58.073Z,20.67
2019-02-21T15:52:47.380Z,20.97
2019-02-21T15:55:37.117Z,23.80
2019-02-21T15:58:26.560Z,17.87
2019-02-21T16:01:16.234Z,28.20
2019-02-21T16:04:06.498Z,23.37
2019-02-21T16:06:56.107Z,32.30
2019-02-21T16:09:45.797Z,30.53
2019-02-21T16:12:35.233Z,25.10
2019-02-21T16:15:25.076Z,25.80
2019-02-21T16:18:14.519Z,19.17
2019-02-21T16:21:04.618Z,27.37
2019-02-21T16:23:54.274Z,32.40
2019-02-21T16:26:43.445Z,19.83
2019-02-21T16:29:32.931Z,28.53
2019-02-21T16:32:22.486Z,20.87
2019-02-21T16:35:12.212Z,28.60
2019-02-21T16:38:01.387Z,28.40
2019-02-21T16:40:51.212Z,18.80
2019-02-21T16:43:40.867Z,22.07
2019-02-21T16:46:30.549Z,19.13
2019-02-21T16:49:19.737Z,24.07
2019-02-21T16:52:09.858Z,31.20
2019-02-21T16:54:59.003Z,26.77
2019-02-21T16:57:48.589Z,24.63
2019-02-21T17:00:50.382Z,23.13
2019-02-21T17:03:30.601Z,28.23
2019-02-21T17:06:20.420Z,31.10
2019-02-21T17:09:11.953Z,22.93
2019-02-21T17:15:39.621Z,21.40
2019-02-21T17:18:28.855Z,24.07
2019-02-21T17:21:20.921Z,27.37
2019-02-21T17:24:10.923Z,28.73
2019-02-21T17:27:00.870Z,28.13
2019-02-21T17:29:50.487Z,25.07
2019-02-21T17:32:40.010Z,28.70
2019-02-21T17:35:29.624Z,26.30
2019-02-21T17:38:18.724Z,25.60
2019-02-21T17:41:08.194Z,28.40
2019-02-21T17:43:57.288Z,26.87
2019-02-21T17:46:46.501Z,24.53
2019-02-21T17:49:36.437Z,29.03
2019-02-21T17:52:24.579Z,21.80
2019-02-21T17:55:13.718Z,26.67
2019-02-21T17:58:03.096Z,33.57
2019-02-21T18:00:52.256Z,25.17
2019-02-21T18:03:41.625Z,27.67
2019-02-21T18:06:31.787Z,25.70
2019-02-21T18:09:21.273Z,24.90
2019-02-21T18:12:11.175Z,29.87
2019-02-21T18:15:00.731Z,26.67
2019-02-21T18:17:50.337Z,25.00
2019-02-21T18:20:39.687Z,29.97
2019-02-21T18:23:29.676Z,32.50
2019-02-21T18:26:20.058Z,32.93
2019-02-21T18:29:12.472Z,35.07
2019-02-21T18:32:02.218Z,34.97
2019-02-21T18:34:51.646Z,33.30
2019-02-21T18:37:47.291Z,29.73
2019-02-21T18:40:32.000Z,30.90
2019-02-21T18:43:21.482Z,34.17
2019-02-21T18:46:11.028Z,30.07
2019-02-21T18:49:00.652Z,29.20
2019-02-21T18:51:50.384Z,25.50
2019-02-21T18:54:39.974Z,33.03
2019-02-21T18:57:29.680Z,29.13
2019-02-21T19:00:20.345Z,39.37
2019-02-21T19:03:10.311Z,34.37
2019-02-21T19:05:59.698Z,35.83
2019-02-21T19:08:49.125Z,41.17
2019-02-21T19:11:38.733Z,37.77
2019-02-21T19:14:27.988Z,30.30
2019-02-21T19:17:17.503Z,36.73
2019-02-21T19:20:08.936Z,31.03
2019-02-21T19:22:58.844Z,31.47
2019-02-21T19:25:48.350Z,27.60
2019-02-21T19:28:37.906Z,31.00
2019-02-21T19:31:27.864Z,32.10
2019-02-21T19:34:17.246Z,36.40
2019-02-21T19:37:07.124Z,33.77
2019-02-21T19:39:56.452Z,32.63
2019-02-21T19:42:49.136Z,34.37
2019-02-21T19:45:38.451Z,36.70
2019-02-21T19:48:28.213Z,31.50
2019-02-21T19:51:17.844Z,34.07
2019-02-21T19:54:10.371Z,34.33
2019-02-21T19:56:59.790Z,35.93
2019-02-21T19:59:49.362Z,32.87
2019-02-21T20:02:39.063Z,36.97
2019-02-21T20:05:29.454Z,34.23
2019-02-21T20:08:21.572Z,34.80
2019-02-21T20:11:10.331Z,34.97
2019-02-21T20:13:59.881Z,33.53
2019-02-21T20:16:49.216Z,31.27
2019-02-21T20:19:39.974Z,33.00
2019-02-21T20:22:30.102Z,37.47
2019-02-21T20:25:20.636Z,30.50
2019-02-21T20:28:10.966Z,32.83
2019-02-21T20:31:00.555Z,31.73
2019-02-21T20:33:50.521Z,36.43
2019-02-21T20:36:50.472Z,34.17
2019-02-21T20:39:30.957Z,34.50
2019-02-21T20:42:20.209Z,35.87
2019-02-21T20:45:10.302Z,36.80
2019-02-21T20:47:59.785Z,31.57
2019-02-21T20:50:56.888Z,27.70
2019-02-21T20:53:40.584Z,41.87
2019-02-21T20:56:30.108Z,29.50
2019-02-21T20:59:19.954Z,28.50
2019-02-21T21:02:11.296Z,32.07
2019-02-21T21:05:00.773Z,30.90
2019-02-21T21:07:50.393Z,41.20
2019-02-21T21:10:40.806Z,28.00
2019-02-21T21:13:30.432Z,31.53
2019-02-21T21:16:20.482Z,31.67
2019-02-21T21:19:12.744Z,36.27
2019-02-21T21:22:01.949Z,32.00
2019-02-21T21:24:51.957Z,32.83
2019-02-21T21:27:41.464Z,31.80
2019-02-21T21:30:30.901Z,28.13
2019-02-21T21:33:20.210Z,34.63
2019-02-21T21:36:09.559Z,30.50
2019-02-21T21:38:58.971Z,32.60
2019-02-21T21:41:48.189Z,29.30
2019-02-21T21:44:37.344Z,29.17
2019-02-21T21:47:27.297Z,34.53
2019-02-21T21:50:17.291Z,35.53
2019-02-21T21:53:06.928Z,30.87
2019-02-21T21:55:56.241Z,37.70
2019-02-21T21:58:45.836Z,31.20
2019-02-21T22:01:35.345Z,29.63
2019-02-21T22:04:25.282Z,27.47
2019-02-21T22:07:14.788Z,29.17
2019-02-21T22:10:05.309Z,34.53
2019-02-21T22:12:54.998Z,28.90
2019-02-21T22:15:44.933Z,33.63
2019-02-21T22:18:34.319Z,29.40
2019-02-21T22:21:24.169Z,33.17
2019-02-21T22:24:13.415Z,35.93
2019-02-21T22:27:03.681Z,49.33
2019-02-21T22:29:53.093Z,27.93
2019-02-21T22:32:43.072Z,27.83
2019-02-21T22:35:32.552Z,33.70
2019-02-21T22:38:21.884Z,37.33
2019-02-21T22:41:11.109Z,36.03
2019-02-21T22:44:00.695Z,26.47
2019-02-21T22:46:49.900Z,23.00
2019-02-21T22:49:39.559Z,37.70
2019-02-21T22:52:28.735Z,30.00
2019-02-21T22:55:18.492Z,23.73
2019-02-21T22:58:08.072Z,26.67
2019-02-21T23:01:23.592Z,28.87
2019-02-21T23:04:51.503Z,26.57
2019-02-21T23:07:48.053Z,25.70
2019-02-21T23:10:37.535Z,37.13
2019-02-21T23:13:26.660Z,24.23
2019-02-21T23:16:16.478Z,29.23
2019-02-21T23:19:07.815Z,28.47
2019-02-21T23:21:57.415Z,26.87
2019-02-21T23:24:46.639Z,26.07
2019-02-21T23:27:36.668Z,28.67
2019-02-21T23:30:25.969Z,23.27
2019-02-21T23:33:15.090Z,22.23
2019-02-21T23:36:04.728Z,22.33
2019-02-21T23:38:54.035Z,24.10
2019-02-21T23:41:43.640Z,23.57
2019-02-21T23:44:33.485Z,22.87
2019-02-21T23:47:23.072Z,22.67
2019-02-21T23:50:13.066Z,25.87
2019-02-21T23:53:02.294Z,31.23
2019-02-21T23:55:52.180Z,25.23
2019-02-21T23:58:41.681Z,24.93
